createdAt,value
2018-06-20T00:01:25.193Z,3.60
2018-06-20T00:03:55.315Z,4.00
2018-06-20T00:06:24.241Z,3.90
2018-06-20T00:08:54.491Z,3.40
2018-06-20T00:11:24.724Z,3.70
2018-06-20T00:13:55.327Z,3.33
2018-06-20T00:16:26.074Z,3.50
2018-06-20T00:18:55.694Z,3.57
2018-06-20T00:21:25.818Z,3.43
2018-06-20T00:23:58.339Z,3.93
2018-06-20T00:26:27.744Z,4.87
2018-06-20T00:28:57.026Z,3.97
2018-06-20T00:31:29.671Z,4.07
2018-06-20T00:34:07.956Z,3.90
2018-06-20T00:36:45.446Z,4.10
2018-06-20T00:39:26.089Z,3.53
2018-06-20T00:42:03.403Z,3.70
2018-06-20T00:44:32.570Z,3.40
2018-06-20T00:52:34.016Z,3.73
2018-06-20T00:55:03.179Z,3.60
2018-06-20T00:57:32.343Z,3.80
2018-06-20T01:00:01.390Z,3.90
2018-06-20T01:02:30.436Z,3.77
2018-06-20T01:04:59.592Z,3.63
2018-06-20T01:07:29.603Z,4.10
2018-06-20T01:09:58.519Z,3.83
2018-06-20T01:12:28.407Z,3.77
2018-06-20T01:14:57.565Z,3.60
2018-06-20T01:17:27.327Z,4.00
2018-06-20T01:19:57.451Z,4.23
2018-06-20T01:22:26.854Z,4.10
2018-06-20T01:24:56.020Z,4.17
2018-06-20T01:27:25.180Z,3.83
2018-06-20T01:29:54.104Z,4.50
2018-06-20T01:32:24.467Z,4.13
2018-06-20T01:34:53.642Z,3.93
2018-06-20T01:37:22.679Z,4.30
2018-06-20T01:39:54.957Z,4.27
2018-06-20T01:42:24.606Z,4.20
2018-06-20T01:44:53.883Z,4.30
2018-06-20T01:47:22.936Z,4.40
2018-06-20T01:49:51.970Z,4.30
2018-06-20T01:52:21.252Z,4.67
2018-06-20T01:54:50.417Z,3.97
2018-06-20T01:57:19.578Z,4.27
2018-06-20T01:59:48.983Z,4.37
2018-06-20T02:02:18.146Z,4.43
2018-06-20T02:04:47.310Z,4.57
2018-06-20T02:07:17.312Z,4.67
2018-06-20T02:09:47.204Z,4.80
2018-06-20T02:12:17.203Z,4.30
2018-06-20T02:14:46.964Z,4.90
2018-06-20T02:17:15.893Z,4.23
2018-06-20T02:19:45.047Z,4.60
2018-06-20T02:22:14.331Z,4.57
2018-06-20T02:24:44.693Z,4.60
2018-06-20T02:27:14.099Z,4.27
2018-06-20T02:29:43.260Z,4.23
2018-06-20T02:32:12.311Z,4.73
2018-06-20T02:34:42.186Z,4.80
2018-06-20T02:37:20.950Z,4.93
2018-06-20T02:39:50.000Z,5.10
2018-06-20T02:42:28.276Z,4.63
2018-06-20T02:44:59.841Z,5.00
2018-06-20T02:47:38.408Z,4.80
2018-06-20T02:50:09.597Z,4.50
2018-06-20T02:52:49.711Z,4.47
2018-06-20T02:55:19.923Z,4.93
2018-06-20T02:58:13.090Z,4.70
2018-06-20T03:01:08.861Z,4.50
2018-06-20T03:03:44.146Z,4.90
2018-06-20T03:06:14.986Z,4.60
2018-06-20T03:09:02.040Z,4.93
2018-06-20T03:11:32.756Z,5.10
2018-06-20T03:16:58.205Z,4.60
2018-06-20T03:19:29.770Z,5.33
2018-06-20T03:21:59.312Z,4.90
2018-06-20T03:24:28.449Z,4.40
2018-06-20T03:26:58.094Z,5.20
2018-06-20T03:29:27.256Z,5.07
2018-06-20T03:31:58.823Z,4.83
2018-06-20T03:34:27.996Z,5.20
2018-06-20T03:36:57.144Z,4.90
2018-06-20T03:39:26.435Z,5.13
2018-06-20T03:44:45.159Z,5.50
2018-06-20T03:50:18.409Z,5.20
2018-06-20T03:52:47.686Z,5.37
2018-06-20T03:55:16.856Z,5.20
2018-06-20T03:57:47.103Z,5.07
2018-06-20T04:00:16.494Z,5.97
2018-06-20T04:02:45.537Z,4.77
2018-06-20T04:05:14.821Z,5.60
2018-06-20T04:07:43.751Z,5.40
2018-06-20T04:10:17.948Z,5.10
2018-06-20T04:13:14.471Z,5.13
2018-06-20T04:15:43.756Z,5.47
2018-06-20T04:18:15.648Z,5.33
2018-06-20T04:23:50.491Z,5.23
2018-06-20T04:26:48.449Z,5.47
2018-06-20T04:30:59.854Z,5.80
2018-06-20T04:33:31.295Z,6.07
2018-06-20T04:36:00.598Z,5.03
2018-06-20T04:38:29.623Z,5.90
2018-06-20T04:41:00.229Z,5.80
2018-06-20T04:44:00.949Z,5.80
2018-06-20T04:46:30.955Z,6.13
2018-06-20T04:49:27.715Z,5.63
2018-06-20T05:00:14.539Z,6.20
2018-06-20T05:02:45.253Z,5.80
2018-06-20T05:05:14.415Z,5.77
2018-06-20T05:07:44.178Z,5.60
2018-06-20T05:10:27.438Z,5.40
2018-06-20T05:14:01.107Z,5.57
2018-06-20T05:16:30.993Z,6.27
2018-06-20T05:19:00.153Z,5.83
2018-06-20T05:21:29.317Z,5.93
2018-06-20T05:23:58.479Z,6.00
2018-06-20T05:26:27.643Z,5.90
2018-06-20T05:31:48.439Z,6.07
2018-06-20T05:34:23.453Z,7.00
2018-06-20T05:37:01.627Z,6.33
2018-06-20T05:39:38.350Z,6.37
2018-06-20T05:42:08.702Z,6.30
2018-06-20T05:44:37.747Z,6.37
2018-06-20T05:47:07.989Z,6.43
2018-06-20T05:49:37.515Z,6.47
2018-06-20T05:52:06.443Z,6.43
2018-06-20T05:54:35.718Z,7.27
2018-06-20T05:57:04.882Z,7.13
2018-06-20T05:59:33.934Z,7.27
2018-06-20T06:02:03.208Z,7.00
2018-06-20T06:04:32.970Z,7.10
2018-06-20T06:07:02.495Z,6.93
2018-06-20T06:09:31.536Z,7.70
2018-06-20T06:12:00.509Z,7.70
2018-06-20T06:14:29.390Z,7.40
2018-06-20T06:16:58.679Z,7.97
2018-06-20T06:19:27.955Z,7.37
2018-06-20T06:21:56.999Z,7.77
2018-06-20T06:24:25.919Z,8.03
2018-06-20T06:26:56.161Z,7.63
2018-06-20T06:29:25.202Z,8.40
2018-06-20T06:31:56.172Z,8.00
2018-06-20T06:34:25.450Z,7.40
2018-06-20T06:36:54.139Z,8.13
2018-06-20T06:39:23.182Z,8.47
2018-06-20T06:41:52.255Z,8.30
2018-06-20T06:44:21.503Z,9.37
2018-06-20T06:46:50.904Z,8.10
2018-06-20T06:49:20.307Z,8.27
2018-06-20T06:51:49.474Z,8.47
2018-06-20T06:54:18.994Z,8.40
2018-06-20T06:56:48.397Z,8.80
2018-06-20T06:59:17.801Z,8.67
2018-06-20T07:01:47.083Z,8.23
2018-06-20T07:04:16.246Z,8.37
2018-06-20T07:06:45.410Z,8.37
2018-06-20T07:09:14.744Z,7.23
2018-06-20T07:11:44.458Z,7.50
2018-06-20T07:14:13.267Z,6.60
2018-06-20T07:16:42.422Z,6.73
2018-06-20T07:19:12.906Z,7.23
2018-06-20T07:21:41.949Z,7.23
2018-06-20T07:24:12.202Z,6.87
2018-06-20T07:26:41.475Z,6.33
2018-06-20T07:29:10.832Z,6.80
2018-06-20T07:31:39.927Z,7.10
2018-06-20T07:34:08.909Z,5.90
2018-06-20T07:36:38.249Z,6.40
2018-06-20T07:39:08.259Z,6.10
2018-06-20T07:41:39.693Z,5.50
2018-06-20T07:44:08.857Z,4.87
2018-06-20T07:46:38.382Z,4.70
2018-06-20T07:49:07.476Z,5.00
2018-06-20T07:51:36.356Z,4.30
2018-06-20T07:54:05.395Z,4.67
2018-06-20T07:56:35.633Z,4.40
2018-06-20T07:59:04.915Z,4.43
2018-06-20T08:01:50.279Z,4.70
2018-06-20T08:04:27.606Z,5.50
2018-06-20T08:07:02.646Z,5.10
2018-06-20T08:09:37.569Z,4.17
2018-06-20T08:12:11.772Z,4.30
2018-06-20T08:14:46.337Z,4.30
2018-06-20T08:17:21.858Z,4.90
2018-06-20T08:19:54.155Z,4.93
2018-06-20T08:22:23.915Z,4.17
2018-06-20T08:25:07.014Z,4.33
2018-06-20T08:27:36.993Z,3.97
2018-06-20T08:30:07.235Z,3.70
2018-06-20T08:32:36.280Z,3.57
2018-06-20T08:35:06.520Z,4.50
2018-06-20T08:37:35.928Z,3.93
2018-06-20T08:40:04.968Z,3.97
2018-06-20T08:42:34.084Z,4.10
2018-06-20T08:45:02.854Z,4.20
2018-06-20T08:47:32.096Z,4.03
2018-06-20T08:50:03.083Z,3.40
2018-06-20T08:52:32.464Z,3.57
2018-06-20T08:55:02.235Z,4.00
2018-06-20T08:57:31.306Z,4.20
2018-06-20T09:00:07.159Z,3.87
2018-06-20T09:02:36.199Z,4.13
2018-06-20T09:05:10.880Z,4.07
2018-06-20T09:07:45.202Z,3.77
2018-06-20T09:10:19.526Z,3.20
2018-06-20T09:12:53.753Z,4.00
2018-06-20T09:15:27.847Z,3.40
2018-06-20T09:18:02.134Z,3.70
2018-06-20T09:20:31.134Z,3.43
2018-06-20T09:23:00.103Z,3.47
2018-06-20T09:25:29.384Z,3.57
2018-06-20T09:27:59.267Z,3.80
2018-06-20T09:30:28.312Z,3.77
2018-06-20T09:35:32.199Z,3.67
2018-06-20T09:38:01.327Z,3.40
2018-06-20T09:40:31.093Z,3.23
2018-06-20T09:43:00.368Z,3.00
2018-06-20T09:45:29.289Z,3.53
2018-06-20T09:47:58.338Z,3.47
2018-06-20T09:50:32.776Z,3.83
2018-06-20T09:53:01.939Z,3.37
2018-06-20T09:55:30.985Z,3.23
2018-06-20T09:58:01.893Z,3.60
2018-06-20T10:00:36.224Z,3.60
2018-06-20T10:03:13.123Z,3.37
2018-06-20T10:05:47.450Z,3.27
2018-06-20T10:08:21.559Z,3.07
2018-06-20T10:11:53.567Z,3.20
2018-06-20T10:14:22.726Z,3.03
2018-06-20T10:16:51.649Z,3.00
2018-06-20T10:19:20.935Z,3.90
2018-06-20T10:21:50.576Z,3.47
2018-06-20T10:24:20.218Z,3.43
2018-06-20T10:26:49.549Z,3.57
2018-06-20T10:29:19.146Z,3.53
2018-06-20T10:31:48.197Z,3.50
2018-06-20T10:34:17.984Z,3.17
2018-06-20T10:36:47.236Z,3.17
2018-06-20T10:39:16.284Z,3.33
2018-06-20T10:41:45.250Z,3.30
2018-06-20T10:44:16.883Z,3.10
2018-06-20T10:46:53.248Z,2.93
2018-06-20T10:49:23.895Z,3.27
2018-06-20T10:51:53.822Z,3.30
2018-06-20T10:54:22.799Z,3.13
2018-06-20T10:56:57.221Z,2.63
2018-06-20T10:59:32.383Z,3.20
2018-06-20T11:02:06.826Z,3.23
2018-06-20T11:04:41.149Z,2.80
2018-06-20T11:07:18.403Z,3.30
2018-06-20T11:09:52.924Z,3.40
2018-06-20T11:12:27.119Z,3.10
2018-06-20T11:14:56.163Z,3.23
2018-06-20T11:17:25.334Z,3.10
2018-06-20T11:19:54.612Z,3.03
2018-06-20T11:22:24.013Z,3.23
2018-06-20T11:24:54.375Z,3.40
2018-06-20T11:27:24.500Z,2.80
2018-06-20T11:29:53.551Z,2.77
2018-06-20T11:32:22.592Z,3.40
2018-06-20T11:34:51.871Z,3.10
2018-06-20T11:37:23.074Z,3.20
2018-06-20T11:39:52.234Z,2.63
2018-06-20T11:42:24.037Z,2.90
2018-06-20T11:44:54.167Z,2.90
2018-06-20T11:47:28.371Z,2.83
2018-06-20T11:49:57.782Z,2.87
2018-06-20T11:52:32.135Z,2.63
2018-06-20T11:55:06.419Z,2.63
2018-06-20T11:57:36.471Z,2.50
2018-06-20T12:00:10.979Z,2.30
2018-06-20T12:02:47.343Z,2.57
2018-06-20T12:05:21.554Z,2.40
2018-06-20T12:07:55.755Z,2.40
2018-06-20T12:10:30.074Z,2.30
2018-06-20T12:13:05.477Z,2.40
2018-06-20T12:15:39.678Z,2.30
2018-06-20T12:18:13.646Z,2.47
2018-06-20T12:20:48.104Z,2.10
2018-06-20T12:23:22.311Z,2.30
2018-06-20T12:25:56.635Z,2.17
2018-06-20T12:28:30.943Z,2.50
2018-06-20T12:31:05.069Z,2.37
2018-06-20T12:33:39.701Z,2.17
2018-06-20T12:36:13.905Z,2.22
2018-06-20T12:38:48.117Z,2.10
2018-06-20T12:41:22.319Z,2.20
2018-06-20T12:43:57.385Z,2.27
2018-06-20T12:46:39.957Z,2.17
2018-06-20T12:49:12.600Z,2.40
2018-06-20T12:51:41.793Z,2.10
2018-06-20T12:54:10.967Z,2.40
2018-06-20T12:56:40.822Z,2.27
2018-06-20T12:59:09.774Z,2.30
2018-06-20T13:01:39.259Z,2.00
2018-06-20T13:04:08.324Z,2.30
2018-06-20T13:06:37.223Z,2.30
2018-06-20T13:09:10.356Z,2.12
2018-06-20T13:11:39.870Z,2.00
2018-06-20T13:14:09.279Z,1.97
2018-06-20T13:16:38.324Z,2.10
2018-06-20T13:19:08.679Z,2.20
2018-06-20T13:21:38.092Z,2.25
2018-06-20T13:24:08.446Z,1.92
2018-06-20T13:26:37.491Z,2.40
2018-06-20T13:29:07.852Z,2.37
2018-06-20T13:31:42.775Z,2.30
2018-06-20T13:34:17.098Z,2.40
2018-06-20T13:36:51.182Z,2.50
2018-06-20T13:39:25.648Z,2.50
2018-06-20T13:42:00.441Z,2.17
2018-06-20T13:44:30.078Z,2.53
2018-06-20T13:47:04.635Z,2.50
2018-06-20T13:49:35.020Z,2.70
2018-06-20T13:52:04.663Z,2.40
2018-06-20T13:54:34.284Z,2.50
2018-06-20T13:57:03.940Z,2.70
2018-06-20T13:59:33.112Z,2.83
2018-06-20T14:02:02.373Z,2.60
2018-06-20T14:04:31.543Z,2.60
2018-06-20T14:07:00.582Z,2.57
2018-06-20T14:09:29.507Z,2.33
2018-06-20T14:11:58.909Z,2.37
2018-06-20T14:14:27.949Z,2.30
2018-06-20T14:16:57.713Z,2.30
2018-06-20T14:19:34.076Z,2.30
2018-06-20T14:22:03.486Z,2.37
2018-06-20T14:24:34.322Z,2.43
2018-06-20T14:27:03.726Z,2.40
2018-06-20T14:29:37.877Z,2.60
2018-06-20T14:32:12.022Z,2.80
2018-06-20T14:34:46.339Z,2.60
2018-06-20T14:37:21.857Z,3.00
2018-06-20T14:39:56.183Z,2.50
2018-06-20T14:42:30.552Z,2.40
2018-06-20T14:45:04.955Z,2.40
2018-06-20T14:47:34.352Z,2.80
2018-06-20T14:50:06.570Z,2.50
2018-06-20T14:52:37.405Z,3.53
2018-06-20T14:55:06.880Z,2.50
2018-06-20T14:57:36.767Z,2.40
2018-06-20T15:00:06.887Z,1.87
2018-06-20T15:02:35.820Z,2.10
2018-06-20T15:05:05.095Z,2.27
2018-06-20T15:07:34.616Z,2.80
2018-06-20T15:10:05.831Z,2.63
2018-06-20T15:12:34.988Z,2.50
2018-06-20T15:15:04.986Z,2.37
2018-06-20T15:17:34.269Z,2.50
2018-06-20T15:20:04.556Z,2.23
2018-06-20T15:22:39.077Z,1.90
2018-06-20T15:25:08.359Z,2.97
2018-06-20T15:27:42.704Z,2.40
2018-06-20T15:30:18.085Z,2.50
2018-06-20T15:32:53.766Z,2.43
2018-06-20T15:35:27.985Z,2.37
2018-06-20T15:38:02.974Z,2.43
2018-06-20T15:40:31.909Z,2.53
2018-06-20T15:43:00.830Z,2.47
2018-06-20T15:45:30.105Z,2.60
2018-06-20T15:48:01.187Z,2.30
2018-06-20T15:50:30.471Z,2.60
2018-06-20T15:53:00.234Z,2.90
2018-06-20T15:55:30.358Z,2.80
2018-06-20T15:57:59.529Z,2.73
2018-06-20T16:00:28.815Z,2.90
2018-06-20T16:02:57.987Z,2.80
2018-06-20T16:05:27.019Z,2.60
2018-06-20T16:07:56.172Z,3.00
2018-06-20T16:10:25.335Z,2.67
2018-06-20T16:12:54.619Z,2.40
2018-06-20T16:15:24.389Z,3.00
2018-06-20T16:17:53.304Z,2.80
2018-06-20T16:20:28.407Z,2.67
2018-06-20T16:23:02.699Z,2.57
2018-06-20T16:25:37.115Z,2.70
2018-06-20T16:28:11.317Z,2.63
2018-06-20T16:30:41.680Z,3.10
2018-06-20T16:33:10.611Z,2.77
2018-06-20T16:35:40.285Z,2.60
2018-06-20T16:38:09.588Z,2.80
2018-06-20T16:40:39.774Z,2.50
2018-06-20T16:43:09.546Z,2.80
2018-06-20T16:45:38.579Z,2.90
2018-06-20T16:48:07.627Z,2.80
2018-06-20T16:50:37.745Z,3.00
2018-06-20T16:53:06.725Z,2.80
2018-06-20T16:55:36.080Z,2.40
2018-06-20T16:58:05.725Z,2.60
2018-06-20T17:00:36.470Z,2.73
2018-06-20T17:03:05.601Z,2.37
2018-06-20T17:05:35.725Z,2.53
2018-06-20T17:08:04.898Z,2.77
2018-06-20T17:10:34.052Z,2.53
2018-06-20T17:13:08.976Z,2.70
2018-06-20T17:15:42.939Z,2.30
2018-06-20T17:18:17.501Z,2.70
2018-06-20T17:20:51.946Z,2.70
2018-06-20T17:23:26.267Z,2.63
2018-06-20T17:25:55.671Z,2.40
2018-06-20T17:28:26.394Z,2.73
2018-06-20T17:30:55.918Z,2.50
2018-06-20T17:33:25.323Z,2.70
2018-06-20T17:35:54.725Z,3.00
2018-06-20T17:38:24.250Z,2.93
2018-06-20T17:40:53.058Z,2.77
2018-06-20T17:43:22.572Z,2.80
2018-06-20T17:45:52.216Z,2.87
2018-06-20T17:48:21.740Z,2.80
2018-06-20T17:50:51.022Z,2.60
2018-06-20T17:53:20.076Z,2.70
2018-06-20T17:55:49.132Z,2.40
2018-06-20T17:58:18.391Z,3.10
2018-06-20T18:00:52.836Z,2.97
2018-06-20T18:03:22.724Z,2.73
2018-06-20T18:05:58.243Z,2.50
2018-06-20T18:08:32.448Z,2.90
2018-06-20T18:11:06.683Z,2.73
2018-06-20T18:13:40.741Z,2.67
2018-06-20T18:16:16.134Z,2.43
2018-06-20T18:18:46.616Z,2.20
2018-06-20T18:21:15.907Z,2.63
2018-06-20T18:23:46.025Z,2.63
2018-06-20T18:26:15.788Z,2.93
2018-06-20T18:28:44.830Z,2.67
2018-06-20T18:31:14.117Z,2.60
2018-06-20T18:33:43.282Z,3.20
2018-06-20T18:36:12.679Z,2.80
2018-06-20T18:38:41.842Z,2.93
2018-06-20T18:41:11.505Z,2.80
2018-06-20T18:43:40.409Z,2.70
2018-06-20T18:46:09.573Z,3.10
2018-06-20T18:48:38.655Z,2.73
2018-06-20T18:51:07.680Z,2.63
2018-06-20T18:53:36.581Z,2.73
2018-06-20T18:56:05.751Z,3.40
2018-06-20T18:58:39.829Z,3.30
2018-06-20T19:01:14.153Z,2.77
2018-06-20T19:03:48.593Z,3.20
2018-06-20T19:06:22.804Z,3.27
2018-06-20T19:08:56.982Z,3.47
2018-06-20T19:11:26.054Z,3.10
2018-06-20T19:13:55.091Z,3.17
2018-06-20T19:16:24.741Z,3.77
2018-06-20T19:18:53.779Z,3.43
2018-06-20T19:21:23.079Z,3.93
2018-06-20T19:23:52.227Z,3.80
2018-06-20T19:26:21.511Z,4.00
2018-06-20T19:28:50.550Z,4.10
2018-06-20T19:31:19.725Z,3.67
2018-06-20T19:33:48.874Z,4.00
2018-06-20T19:36:18.274Z,3.93
2018-06-20T19:38:48.037Z,4.40
2018-06-20T19:41:17.204Z,4.40
2018-06-20T19:43:51.644Z,4.50
2018-06-20T19:46:20.689Z,4.83
2018-06-20T19:48:50.818Z,4.10
2018-06-20T19:51:20.214Z,4.30
2018-06-20T19:53:49.498Z,4.57
2018-06-20T19:56:18.781Z,4.60
2018-06-20T19:58:48.665Z,4.90
2018-06-20T20:01:19.991Z,4.27
2018-06-20T20:03:49.156Z,4.50
2018-06-20T20:06:18.241Z,4.80
2018-06-20T20:08:47.242Z,4.33
2018-06-20T20:11:16.399Z,4.27
2018-06-20T20:13:46.044Z,4.20
2018-06-20T20:16:15.118Z,4.23
2018-06-20T20:18:44.729Z,4.50
2018-06-20T20:21:14.733Z,4.60
2018-06-20T20:23:44.375Z,4.97
2018-06-20T20:26:13.299Z,4.80
2018-06-20T20:28:42.703Z,4.70
2018-06-20T20:31:12.225Z,4.20
2018-06-20T20:33:41.867Z,4.27
2018-06-20T20:36:10.800Z,3.87
2018-06-20T20:38:39.840Z,4.00
2018-06-20T20:41:09.000Z,4.07
2018-06-20T20:43:37.952Z,4.27
2018-06-20T20:46:08.523Z,4.10
2018-06-20T20:48:38.174Z,3.83
2018-06-20T20:51:07.450Z,4.47
2018-06-20T20:56:06.256Z,4.10
2018-06-20T20:58:35.418Z,4.10
2018-06-20T21:01:04.821Z,4.37
2018-06-20T21:03:33.753Z,4.10
2018-06-20T21:06:03.148Z,4.07
2018-06-20T21:08:32.911Z,4.13
2018-06-20T21:11:01.835Z,4.13
2018-06-20T21:13:31.723Z,3.80
2018-06-20T21:16:00.648Z,4.10
2018-06-20T21:18:30.657Z,3.70
2018-06-20T21:21:00.050Z,3.70
2018-06-20T21:23:30.170Z,4.10
2018-06-20T21:25:59.577Z,4.10
2018-06-20T21:28:28.983Z,4.33
2018-06-20T21:30:58.043Z,3.97
2018-06-20T21:33:27.253Z,4.43
2018-06-20T21:35:56.361Z,3.97
2018-06-20T21:38:25.509Z,4.27
2018-06-20T21:40:54.792Z,4.13
2018-06-20T21:43:24.565Z,4.23
2018-06-20T21:45:53.599Z,4.47
2018-06-20T21:48:22.887Z,3.90
2018-06-20T21:50:52.765Z,4.97
2018-06-20T21:53:23.128Z,4.10
2018-06-20T21:55:52.185Z,4.27
2018-06-20T21:58:20.768Z,4.10
2018-06-20T22:00:49.897Z,3.90
2018-06-20T22:03:18.861Z,4.23
2018-06-20T22:05:48.105Z,4.20
2018-06-20T22:08:17.626Z,4.00
2018-06-20T22:10:47.750Z,4.20
2018-06-20T22:13:16.912Z,4.20
2018-06-20T22:15:45.956Z,4.30
2018-06-20T22:18:14.881Z,4.20
2018-06-20T22:20:44.162Z,4.10
2018-06-20T22:23:13.207Z,4.10
2018-06-20T22:25:42.613Z,4.07
2018-06-20T22:28:11.774Z,3.80
2018-06-20T22:30:40.861Z,3.93
2018-06-20T22:33:09.983Z,4.00
2018-06-20T22:35:38.953Z,4.20
2018-06-20T22:38:08.307Z,3.73
2018-06-20T22:40:37.587Z,3.80
2018-06-20T22:43:07.111Z,3.80
2018-06-20T22:45:36.275Z,4.00
2018-06-20T22:48:05.684Z,3.80
2018-06-20T22:50:34.859Z,3.70
2018-06-20T22:53:04.160Z,3.83
2018-06-20T22:55:33.407Z,3.57
2018-06-20T22:58:03.049Z,3.97
2018-06-20T23:00:32.268Z,3.80
2018-06-20T23:03:01.385Z,3.53
2018-06-20T23:05:30.539Z,3.90
2018-06-20T23:07:59.588Z,3.90
2018-06-20T23:10:29.351Z,4.13
2018-06-20T23:12:58.387Z,4.23
2018-06-20T23:15:27.458Z,4.07
2018-06-20T23:17:56.595Z,3.80
2018-06-20T23:20:26.239Z,4.03
2018-06-20T23:22:55.640Z,4.13
2018-06-20T23:25:24.809Z,3.73
2018-06-20T23:27:54.088Z,3.80
2018-06-20T23:30:23.251Z,3.90
2018-06-20T23:32:52.059Z,3.80
2018-06-20T23:35:22.417Z,3.80
2018-06-20T23:37:51.381Z,3.30
2018-06-20T23:40:20.503Z,3.57
2018-06-20T23:42:49.788Z,3.43
2018-06-20T23:45:18.763Z,3.50
2018-06-20T23:47:48.232Z,3.30
2018-06-20T23:50:17.411Z,2.87
2018-06-20T23:52:47.043Z,3.37
2018-06-20T23:55:15.761Z,3.40
2018-06-20T23:57:44.651Z,3.50
